Humber Bridge — 3EHZ5 — position and weather

sailwx.info

Track history (hours):
 
Tides and Currents Weather Stations Pressure Air Temp Water Temp Dewpoint Dewpoint Depression Visibility Wind Speed Wind Dir Waves Ship Positions

Humber Bridge

Last reported at 2017-Oct-18 18:29 UTC. Time now 2017-Oct-18 18:45 UTC.
Position N 31°23' E 121°37'.

Length 336 m; draft 11.6 m.

Type: Ship (hazmat cat A). MMSI: 372038000.

Date/timePositionNaut miles runAvg speedWind from/ knotsBaromVisibWave heightAir tempDewpointWater temp
2017-Oct-18 18:29N 31°23' E 121°37'0 0.0
2017-Oct-18 17:59N 31°23' E 121°37'0 0.1
2017-Oct-18 17:29N 31°23' E 121°37'0 0.3
2017-Oct-18 16:59N 31°23' E 121°37'0 0.3
2017-Oct-18 16:29N 31°23' E 121°37'0 0.7
2017-Oct-18 16:00N 31°23' E 121°36'1 2.6
2017-Oct-18 15:29N 31°23' E 121°35'0 0.2
2017-Oct-18 14:56N 31°23' E 121°35'0 0.0
2017-Oct-18 13:56N 31°23' E 121°35'0 0.0
2017-Oct-18 13:29N 31°23' E 121°35'0 0.0
2017-Oct-18 12:59N 31°23' E 121°35'0 0.0
2017-Oct-18 12:29N 31°23' E 121°35'0 0.0
2017-Oct-18 11:59N 31°23' E 121°35'0 0.0
2017-Oct-18 11:29N 31°23' E 121°35'0 0.0
2017-Oct-18 10:59N 31°23' E 121°35'0 0.0
2017-Oct-18 10:29N 31°23' E 121°35'0 0.0
2017-Oct-18 09:59N 31°23' E 121°35'0 0.0
2017-Oct-18 09:29N 31°23' E 121°35'0 0.0
2017-Oct-18 08:59N 31°23' E 121°35'0 0.0
2017-Oct-18 08:29N 31°23' E 121°35'0 0.0
2017-Oct-18 07:59N 31°23' E 121°35'0 0.0
2017-Oct-18 07:29N 31°23' E 121°35'0 0.0
2017-Oct-18 06:59N 31°23' E 121°35'0 0.0
2017-Oct-18 06:29N 31°23' E 121°35'0 0.0
2017-Oct-18 05:59N 31°23' E 121°35'0 0.0
2017-Oct-18 05:29N 31°23' E 121°35'0 0.0
2017-Oct-18 04:59N 31°23' E 121°35'0 0.0
2017-Oct-18 04:29N 31°23' E 121°35'0 0.0
2017-Oct-18 03:59N 31°23' E 121°35'0 0.0
2017-Oct-18 03:29N 31°23' E 121°35'0 0.0
2017-Oct-18 02:59N 31°23' E 121°35'0 0.0
2017-Oct-18 02:29N 31°23' E 121°35'0 0.0
2017-Oct-18 01:53N 31°23' E 121°35'0 0.0
2017-Oct-18 01:29N 31°23' E 121°35'0 0.0
2017-Oct-18 00:59N 31°23' E 121°35'0 0.0
2017-Oct-18 00:29N 31°23' E 121°35'0 0.0
2017-Oct-17 23:59N 31°23' E 121°35'0 0.0
2017-Oct-17 23:23N 31°23' E 121°35'0 0.0
2017-Oct-17 22:59N 31°23' E 121°35'0 0.0
2017-Oct-17 22:29N 31°23' E 121°35'0 0.0
2017-Oct-17 21:59N 31°23' E 121°35'0 0.0
2017-Oct-17 21:29N 31°23' E 121°35'0 0.0
2017-Oct-17 20:59N 31°23' E 121°35'0 0.0
2017-Oct-17 20:26N 31°23' E 121°35'0 0.0
2017-Oct-17 19:59N 31°23' E 121°35'0 0.0
2017-Oct-17 19:29N 31°23' E 121°35'0 0.0
2017-Oct-17 18:59N 31°23' E 121°35'0 0.0
2017-Oct-17 18:29N 31°23' E 121°35'0 0.0
2017-Oct-17 17:59N 31°23' E 121°35'0 0.0
2017-Oct-17 17:26N 31°23' E 121°35'0 0.0
2017-Oct-17 16:59N 31°23' E 121°35'0 0.0
2017-Oct-17 16:29N 31°23' E 121°35'0 0.0
2017-Oct-17 15:59N 31°23' E 121°35'0 0.0
2017-Oct-17 15:20N 31°23' E 121°35'0 0.0
2017-Oct-17 14:59N 31°23' E 121°35'0 0.0
2017-Oct-17 14:29N 31°23' E 121°35'0 0.0
2017-Oct-17 13:59N 31°23' E 121°35'0 0.7
2017-Oct-17 13:30N 31°23' E 121°34'1 1.4
2017-Oct-17 13:00N 31°24' E 121°34'4 8.7
2017-Oct-17 12:30N 31°22' E 121°39'611.2
2017-Oct-17 12:00N 31°19' E 121°44'714.2
2017-Oct-17 11:31N 31°16' E 121°52'714.4
2017-Oct-17 11:00N 31°15' E 122°00'713.2
2017-Oct-17 10:29N 31°12' E 122°08'3 7.0
2017-Oct-17 10:00N 31°10' E 122°11'5 9.4
2017-Oct-17 09:28N 31°08' E 122°16'510.5
2017-Oct-17 09:00N 31°06' E 122°21'5 9.9
2017-Oct-17 08:30N 31°06' E 122°27'510.0
2017-Oct-17 08:00N 31°07' E 122°33'  
Track history (hours):
 
Tides and Currents Weather Stations Pressure Air Temp Water Temp Dewpoint Dewpoint Depression Visibility Wind Speed Wind Dir Waves Ship Positions

Humber Bridge

Last reported at 2017-Oct-18 18:29 UTC. Time now 2017-Oct-18 18:45 UTC.
Position N 31°23' E 121°37'.

Length 336 m; draft 11.6 m.

Type: Ship (hazmat cat A). MMSI: 372038000.

Date/timePositionNaut miles runAvg speedWind from/ knotsBaromVisibWave heightAir tempDewpointWater temp
2017-Oct-18 18:29N 31°23' E 121°37'0 0.0
2017-Oct-18 17:59N 31°23' E 121°37'0 0.1
2017-Oct-18 17:29N 31°23' E 121°37'0 0.3
2017-Oct-18 16:59N 31°23' E 121°37'0 0.3
2017-Oct-18 16:29N 31°23' E 121°37'0 0.7
2017-Oct-18 16:00N 31°23' E 121°36'1 2.6
2017-Oct-18 15:29N 31°23' E 121°35'0 0.2
2017-Oct-18 14:56N 31°23' E 121°35'0 0.0
2017-Oct-18 13:56N 31°23' E 121°35'0 0.0
2017-Oct-18 13:29N 31°23' E 121°35'0 0.0
2017-Oct-18 12:59N 31°23' E 121°35'0 0.0
2017-Oct-18 12:29N 31°23' E 121°35'0 0.0
2017-Oct-18 11:59N 31°23' E 121°35'0 0.0
2017-Oct-18 11:29N 31°23' E 121°35'0 0.0
2017-Oct-18 10:59N 31°23' E 121°35'0 0.0
2017-Oct-18 10:29N 31°23' E 121°35'0 0.0
2017-Oct-18 09:59N 31°23' E 121°35'0 0.0
2017-Oct-18 09:29N 31°23' E 121°35'0 0.0
2017-Oct-18 08:59N 31°23' E 121°35'0 0.0
2017-Oct-18 08:29N 31°23' E 121°35'0 0.0
2017-Oct-18 07:59N 31°23' E 121°35'0 0.0
2017-Oct-18 07:29N 31°23' E 121°35'0 0.0
2017-Oct-18 06:59N 31°23' E 121°35'0 0.0
2017-Oct-18 06:29N 31°23' E 121°35'0 0.0
2017-Oct-18 05:59N 31°23' E 121°35'0 0.0
2017-Oct-18 05:29N 31°23' E 121°35'0 0.0
2017-Oct-18 04:59N 31°23' E 121°35'0 0.0
2017-Oct-18 04:29N 31°23' E 121°35'0 0.0
2017-Oct-18 03:59N 31°23' E 121°35'0 0.0
2017-Oct-18 03:29N 31°23' E 121°35'0 0.0
2017-Oct-18 02:59N 31°23' E 121°35'0 0.0
2017-Oct-18 02:29N 31°23' E 121°35'0 0.0
2017-Oct-18 01:53N 31°23' E 121°35'0 0.0
2017-Oct-18 01:29N 31°23' E 121°35'0 0.0
2017-Oct-18 00:59N 31°23' E 121°35'0 0.0
2017-Oct-18 00:29N 31°23' E 121°35'0 0.0
2017-Oct-17 23:59N 31°23' E 121°35'0 0.0
2017-Oct-17 23:23N 31°23' E 121°35'0 0.0
2017-Oct-17 22:59N 31°23' E 121°35'0 0.0
2017-Oct-17 22:29N 31°23' E 121°35'0 0.0
2017-Oct-17 21:59N 31°23' E 121°35'0 0.0
2017-Oct-17 21:29N 31°23' E 121°35'0 0.0
2017-Oct-17 20:59N 31°23' E 121°35'0 0.0
2017-Oct-17 20:26N 31°23' E 121°35'0 0.0
2017-Oct-17 19:59N 31°23' E 121°35'0 0.0
2017-Oct-17 19:29N 31°23' E 121°35'0 0.0
2017-Oct-17 18:59N 31°23' E 121°35'0 0.0
2017-Oct-17 18:29N 31°23' E 121°35'0 0.0
2017-Oct-17 17:59N 31°23' E 121°35'0 0.0
2017-Oct-17 17:26N 31°23' E 121°35'0 0.0
2017-Oct-17 16:59N 31°23' E 121°35'0 0.0
2017-Oct-17 16:29N 31°23' E 121°35'0 0.0
2017-Oct-17 15:59N 31°23' E 121°35'0 0.0
2017-Oct-17 15:20N 31°23' E 121°35'0 0.0
2017-Oct-17 14:59N 31°23' E 121°35'0 0.0
2017-Oct-17 14:29N 31°23' E 121°35'0 0.0
2017-Oct-17 13:59N 31°23' E 121°35'0 0.7
2017-Oct-17 13:30N 31°23' E 121°34'1 1.4
2017-Oct-17 13:00N 31°24' E 121°34'4 8.7
2017-Oct-17 12:30N 31°22' E 121°39'611.2
2017-Oct-17 12:00N 31°19' E 121°44'714.2
2017-Oct-17 11:31N 31°16' E 121°52'714.4
2017-Oct-17 11:00N 31°15' E 122°00'713.2
2017-Oct-17 10:29N 31°12' E 122°08'3 7.0
2017-Oct-17 10:00N 31°10' E 122°11'5 9.4
2017-Oct-17 09:28N 31°08' E 122°16'510.5
2017-Oct-17 09:00N 31°06' E 122°21'5 9.9
2017-Oct-17 08:30N 31°06' E 122°27'510.0
2017-Oct-17 08:00N 31°07' E 122°33'  

Dump ship's entire track history